Time;durP1;ratioP1;P1;durP2;ratioP2;P2;SDS_P1;SDS_P2;PMS_P1;PMS_P2;Temp;Humidity;BMP_temperature;BMP_pressure;BME280_temperature;BME280_humidity;BME280_pressure;Samples;Min_cycle;Max_cycle;Signal;HPM_P1;HPM_P2
2022/04/02 00:01:12;;;;;;;11.63;10.27;;;4.20;78.50;;;;;;7371026;19;20159;-73
2022/04/02 00:03:41;;;;;;;13.10;10.60;;;4.30;78.90;;;;;;7361370;19;20148;-71
2022/04/02 00:06:13;;;;;;;10.38;9.35;;;4.20;78.70;;;;;;7366751;19;20143;-71
2022/04/02 00:08:47;;;;;;;13.95;11.98;;;4.20;78.30;;;;;;7370329;19;20135;-70
2022/04/02 00:11:17;;;;;;;13.30;11.07;;;4.20;77.30;;;;;;7357579;19;20203;-71
2022/04/02 00:13:47;;;;;;;12.30;10.65;;;3.90;76.90;;;;;;7366462;19;20136;-71
2022/04/02 00:16:18;;;;;;;12.00;10.32;;;3.80;79.10;;;;;;7360050;19;20147;-69
2022/04/02 00:18:49;;;;;;;15.55;12.10;;;3.90;79.00;;;;;;7380946;19;20140;-70
2022/04/02 00:21:21;;;;;;;12.00;10.25;;;3.90;78.30;;;;;;7373164;19;20139;-70
2022/04/02 00:23:55;;;;;;;12.75;10.73;;;3.90;77.20;;;;;;7384845;19;20131;-69
2022/04/02 00:26:25;;;;;;;14.07;11.63;;;3.80;77.50;;;;;;7382530;19;20135;-72
2022/04/02 00:28:55;;;;;;;14.13;11.05;;;3.80;78.60;;;;;;7374912;19;20515;-71
2022/04/02 00:31:29;;;;;;;15.40;12.00;;;3.80;78.10;;;;;;7372551;19;20150;-71
2022/04/02 00:33:59;;;;;;;14.00;11.23;;;3.80;78.40;;;;;;7373731;19;21037;-70
2022/04/02 00:36:31;;;;;;;13.13;11.68;;;3.90;77.50;;;;;;7365440;19;20158;-70
2022/04/02 00:39:03;;;;;;;13.35;11.23;;;3.90;77.30;;;;;;7366394;19;20160;-71
2022/04/02 00:41:32;;;;;;;14.95;11.07;;;4.00;77.90;;;;;;7357168;19;20135;-71
2022/04/02 00:44:12;;;;;;;13.35;10.93;;;3.90;77.40;;;;;;7350643;19;20151;-71
2022/04/02 00:46:47;;;;;;;14.35;10.88;;;3.90;76.60;;;;;;7379564;19;21474;-71
2022/04/02 00:49:18;;;;;;;11.30;9.70;;;3.80;77.30;;;;;;7378093;19;20128;-70
2022/04/02 00:51:53;;;;;;;12.02;10.73;;;3.80;77.60;;;;;;7369042;19;20139;-72
2022/04/02 00:54:27;;;;;;;14.65;11.00;;;3.80;78.40;;;;;;7362899;19;20139;-71
2022/04/02 00:56:58;;;;;;;14.57;10.93;;;3.80;77.80;;;;;;7359268;19;20167;-71
2022/04/02 00:59:27;;;;;;;13.77;11.02;;;3.70;78.10;;;;;;7371586;19;20590;-71
2022/04/02 01:01:57;;;;;;;12.48;10.98;;;3.70;79.00;;;;;;7374070;19;20132;-71
2022/04/02 01:04:26;;;;;;;14.48;11.05;;;3.80;78.70;;;;;;7362202;19;20147;-73
2022/04/02 01:06:56;;;;;;;12.80;11.05;;;3.80;79.70;;;;;;7364979;19;20131;-70
2022/04/02 01:09:32;;;;;;;16.17;11.90;;;4.00;80.00;;;;;;7361857;19;20144;-71
2022/04/02 01:12:01;;;;;;;14.23;12.55;;;4.10;78.40;;;;;;7361712;19;20147;-71
2022/04/02 01:14:34;;;;;;;16.75;11.52;;;4.20;78.40;;;;;;7358254;19;20960;-72
2022/04/02 01:17:16;;;;;;;14.27;11.52;;;4.10;78.10;;;;;;7363966;19;20132;-72
2022/04/02 01:19:50;;;;;;;16.13;10.90;;;4.10;78.10;;;;;;7359015;19;20138;-72
2022/04/02 01:22:29;;;;;;;15.98;11.85;;;4.20;78.90;;;;;;7362153;19;20618;-73
2022/04/02 01:25:06;;;;;;;12.93;11.13;;;4.30;78.20;;;;;;7356107;19;20177;-73
2022/04/02 01:27:45;;;;;;;14.70;10.85;;;4.40;77.90;;;;;;7361777;19;20602;-74
2022/04/02 01:30:15;;;;;;;14.18;11.52;;;4.30;77.30;;;;;;7357909;19;20151;-74
2022/04/02 01:32:47;;;;;;;14.48;11.20;;;4.40;78.10;;;;;;7367886;19;20174;-74
2022/04/02 01:35:20;;;;;;;13.73;10.65;;;4.40;77.60;;;;;;7360667;19;20144;-73
2022/04/02 01:38:02;;;;;;;13.43;11.10;;;4.20;76.30;;;;;;7383027;19;21230;-71
2022/04/02 01:40:32;;;;;;;14.40;12.50;;;4.30;78.00;;;;;;7390264;19;20136;-72
2022/04/02 01:43:02;;;;;;;13.63;10.32;;;4.40;77.70;;;;;;7377599;19;20228;-71
2022/04/02 01:45:32;;;;;;;15.30;11.35;;;4.40;77.40;;;;;;7379431;19;20203;-71
2022/04/02 01:48:05;;;;;;;12.98;11.15;;;4.40;77.00;;;;;;7372038;19;20131;-73
2022/04/02 01:50:46;;;;;;;12.82;10.25;;;4.40;75.90;;;;;;7373638;19;20144;-71
2022/04/02 01:53:18;;;;;;;12.82;10.93;;;4.40;76.10;;;;;;7369525;19;20131;-72
2022/04/02 01:55:50;;;;;;;14.15;11.02;;;4.40;76.50;;;;;;7365811;19;20158;-71
2022/04/02 01:58:42;;;;;;;11.45;10.23;;;4.30;76.60;;;;;;7367651;19;20142;-71
2022/04/02 02:01:16;;;;;;;14.55;10.90;;;4.30;76.60;;;;;;7362288;19;20161;-71
2022/04/02 02:03:46;;;;;;;12.70;10.25;;;4.30;77.50;;;;;;7364147;19;20124;-71
2022/04/02 02:06:16;;;;;;;14.00;10.40;;;4.40;78.10;;;;;;7356301;19;21014;-71
2022/04/02 02:08:51;;;;;;;10.98;9.40;;;4.40;76.10;;;;;;7358388;19;20132;-71
2022/04/02 02:11:34;;;;;;;13.05;9.95;;;4.40;75.70;;;;;;7366231;19;20147;-72
2022/04/02 02:14:10;;;;;;;12.70;10.10;;;4.30;76.40;;;;;;7361825;19;20882;-71
2022/04/02 02:16:49;;;;;;;12.68;9.07;;;4.30;76.40;;;;;;7363915;19;20127;-70
2022/04/02 02:19:19;;;;;;;11.68;9.60;;;4.20;76.70;;;;;;7370185;19;20163;-71
2022/04/02 02:21:52;;;;;;;12.30;10.68;;;4.20;76.30;;;;;;7368258;19;20135;-71
2022/04/02 02:24:25;;;;;;;14.20;10.02;;;4.30;76.70;;;;;;7364103;19;20128;-73
2022/04/02 02:26:57;;;;;;;12.65;10.15;;;4.30;76.30;;;;;;7366941;19;20130;-72
2022/04/02 02:29:35;;;;;;;12.38;10.30;;;4.30;76.10;;;;;;7366871;19;20649;-71
2022/04/02 02:32:22;;;;;;;14.52;10.40;;;4.20;76.40;;;;;;7367519;19;20131;-71
2022/04/02 02:37:47;;;;;;;14.20;10.27;;;4.20;76.80;;;;;;7371626;19;20164;-71
2022/04/02 02:40:22;;;;;;;11.27;8.82;;;4.10;77.40;;;;;;7362927;19;20139;-71
2022/04/02 02:42:52;;;;;;;12.50;10.10;;;4.20;77.10;;;;;;7367610;19;20160;-72
2022/04/02 02:45:31;;;;;;;10.05;8.55;;;4.20;76.40;;;;;;7372351;19;20143;-69
2022/04/02 02:48:04;;;;;;;10.10;8.98;;;4.20;77.00;;;;;;7402116;19;20548;-70
2022/04/02 02:50:45;;;;;;;15.70;8.57;;;4.20;77.00;;;;;;7406038;19;20119;-68
2022/04/02 02:53:16;;;;;;;10.00;8.82;;;4.30;76.90;;;;;;7378826;19;20139;-72
2022/04/02 02:55:50;;;;;;;9.77;8.52;;;4.30;76.80;;;;;;7370094;19;20652;-72
2022/04/02 02:58:23;;;;;;;13.43;8.73;;;4.40;76.60;;;;;;7377039;19;20143;-72
2022/04/02 03:00:52;;;;;;;15.48;8.90;;;4.40;76.30;;;;;;7372913;19;20140;-71
2022/04/02 03:03:28;;;;;;;9.88;8.60;;;4.40;75.60;;;;;;7376782;19;21580;-71
2022/04/02 03:06:02;;;;;;;10.75;8.60;;;4.40;75.20;;;;;;7370125;19;20177;-73
2022/04/02 03:08:37;;;;;;;10.55;9.27;;;4.30;76.00;;;;;;7368575;19;20135;-71
2022/04/02 03:11:10;;;;;;;12.73;8.48;;;4.30;76.20;;;;;;7370577;19;20151;-70
2022/04/02 03:13:40;;;;;;;11.13;8.30;;;4.30;75.80;;;;;;7368548;19;20756;-71
2022/04/02 03:16:12;;;;;;;8.25;7.45;;;4.30;76.20;;;;;;7372024;19;20128;-70
2022/04/02 03:18:52;;;;;;;9.20;7.70;;;4.30;76.40;;;;;;7389546;19;20176;-70
2022/04/02 03:21:24;;;;;;;11.32;7.97;;;4.20;75.80;;;;;;7389622;19;20182;-73
2022/04/02 03:23:54;;;;;;;10.43;8.02;;;4.20;76.80;;;;;;7371247;19;20602;-71
2022/04/02 03:26:28;;;;;;;13.50;7.70;;;4.20;76.30;;;;;;7373817;19;20128;-71
2022/04/02 03:29:02;;;;;;;9.63;8.65;;;4.10;76.00;;;;;;7372392;19;20755;-72
2022/04/02 03:31:52;;;;;;;11.52;8.90;;;4.10;76.10;;;;;;7369825;19;20227;-72
2022/04/02 03:34:22;;;;;;;12.20;7.95;;;4.10;76.60;;;;;;7369839;19;20163;-72
2022/04/02 03:36:58;;;;;;;9.40;7.30;;;4.10;76.70;;;;;;7374917;19;20135;-72
2022/04/02 03:39:33;;;;;;;8.52;7.20;;;3.90;79.10;;;;;;7370394;19;21059;-73
2022/04/02 03:42:06;;;;;;;9.20;8.30;;;3.90;80.80;;;;;;7366294;19;20127;-71
2022/04/02 03:44:36;;;;;;;9.13;7.22;;;3.90;80.80;;;;;;7357681;19;20482;-72
2022/04/02 03:47:10;;;;;;;16.33;8.57;;;3.90;79.80;;;;;;7366020;19;20140;-73
2022/04/02 03:49:47;;;;;;;12.75;7.93;;;3.90;81.40;;;;;;7363827;19;20142;-72
2022/04/02 03:52:19;;;;;;;7.97;7.18;;;3.80;80.80;;;;;;7367088;19;20147;-72
2022/04/02 03:54:53;;;;;;;12.70;8.50;;;3.80;81.60;;;;;;7362687;19;20234;-72
2022/04/02 03:57:26;;;;;;;14.18;7.47;;;3.80;81.60;;;;;;7360156;19;20259;-72
2022/04/02 03:59:59;;;;;;;9.50;7.40;;;3.70;80.60;;;;;;7361834;19;20131;-72
2022/04/02 04:02:32;;;;;;;9.23;6.38;;;3.60;83.10;;;;;;7365307;19;20142;-72
2022/04/02 04:05:06;;;;;;;14.35;8.15;;;3.70;83.00;;;;;;7356794;19;20131;-72
2022/04/02 04:07:39;;;;;;;8.93;6.90;;;3.70;81.50;;;;;;7365292;19;20134;-72
2022/04/02 04:10:11;;;;;;;11.75;7.68;;;3.70;82.90;;;;;;7358546;19;20851;-72
2022/04/02 04:12:44;;;;;;;8.77;7.88;;;3.70;80.70;;;;;;7366368;19;20140;-69
2022/04/02 04:15:18;;;;;;;7.57;6.55;;;3.60;81.50;;;;;;7377538;19;20146;-69
2022/04/02 04:17:49;;;;;;;10.05;6.40;;;3.70;80.80;;;;;;7389114;19;20167;-71
2022/04/02 04:20:19;;;;;;;13.45;6.97;;;3.60;81.80;;;;;;7370710;19;20139;-71
2022/04/02 04:22:48;;;;;;;7.55;6.75;;;3.70;81.40;;;;;;7365274;19;20610;-72
2022/04/02 04:25:22;;;;;;;8.90;6.53;;;3.60;79.50;;;;;;7355097;19;20134;-71
2022/04/02 04:27:55;;;;;;;12.30;7.32;;;3.50;82.20;;;;;;7366416;19;20182;-70
2022/04/02 04:30:29;;;;;;;11.90;7.72;;;3.50;82.20;;;;;;7359925;19;20601;-70
2022/04/02 04:33:04;;;;;;;7.95;5.78;;;3.40;83.00;;;;;;7361221;19;20127;-70
2022/04/02 04:35:33;;;;;;;10.68;6.30;;;3.30;84.10;;;;;;7360086;19;21226;-70
2022/04/02 04:38:03;;;;;;;7.80;6.55;;;3.30;86.60;;;;;;7364686;19;20166;-70
2022/04/02 04:40:33;;;;;;;8.40;7.07;;;3.30;86.90;;;;;;7358950;19;20661;-70
2022/04/02 04:43:07;;;;;;;9.95;6.38;;;3.30;87.50;;;;;;7361884;19;21622;-71
2022/04/02 04:45:43;;;;;;;9.85;7.47;;;3.30;86.00;;;;;;7356624;19;20162;-72
2022/04/02 04:48:20;;;;;;;12.70;8.52;;;3.40;87.30;;;;;;7374879;19;20163;-72
2022/04/02 04:50:57;;;;;;;9.57;7.35;;;3.40;87.90;;;;;;7364973;19;20139;-71
2022/04/02 04:53:31;;;;;;;11.30;8.15;;;3.40;86.60;;;;;;7372696;19;20170;-71
2022/04/02 04:56:02;;;;;;;12.82;7.88;;;3.40;86.30;;;;;;7356915;19;20163;-71
2022/04/02 04:58:36;;;;;;;11.13;7.78;;;3.30;87.80;;;;;;7361000;19;20147;-70
2022/04/02 05:01:12;;;;;;;10.02;7.82;;;3.20;88.10;;;;;;7340218;19;20135;-73
2022/04/02 05:03:42;;;;;;;10.57;9.48;;;3.30;90.60;;;;;;7363862;19;20152;-73
2022/04/02 05:06:16;;;;;;;11.07;8.75;;;3.40;90.20;;;;;;7370591;19;20128;-70
2022/04/02 05:08:51;;;;;;;12.10;8.05;;;3.40;89.30;;;;;;7371961;19;20139;-72
2022/04/02 05:11:23;;;;;;;8.73;7.40;;;3.30;89.60;;;;;;7373507;19;20634;-72
2022/04/02 05:14:01;;;;;;;12.30;9.55;;;3.40;89.70;;;;;;7379903;19;20142;-72
2022/04/02 05:16:31;;;;;;;11.35;8.68;;;3.30;88.70;;;;;;7409001;19;20127;-73
2022/04/02 05:19:02;;;;;;;11.70;7.60;;;3.40;88.20;;;;;;7397030;19;20207;-72
2022/04/02 05:21:36;;;;;;;9.43;8.18;;;3.40;89.10;;;;;;7386479;19;20147;-74
2022/04/02 05:24:08;;;;;;;11.23;9.00;;;3.40;89.40;;;;;;7385271;19;20132;-71
2022/04/02 05:26:42;;;;;;;11.60;8.40;;;3.50;89.90;;;;;;7382937;19;20128;-76
2022/04/02 05:29:18;;;;;;;9.25;7.68;;;3.40;88.40;;;;;;7381996;19;20134;-77
2022/04/02 05:31:50;;;;;;;10.52;8.43;;;3.40;87.50;;;;;;7377478;19;20141;-77
2022/04/02 05:34:22;;;;;;;8.93;7.68;;;3.40;86.10;;;;;;7387255;19;20203;-77
2022/04/02 05:36:54;;;;;;;11.55;8.18;;;3.40;87.90;;;;;;7379330;19;20142;-77
2022/04/02 05:39:23;;;;;;;8.82;7.80;;;3.40;88.50;;;;;;7372049;19;20136;-77
2022/04/02 05:41:56;;;;;;;10.10;7.97;;;3.50;87.90;;;;;;7375667;19;20131;-77
2022/04/02 05:44:30;;;;;;;9.07;8.05;;;3.50;87.00;;;;;;7391353;19;20143;-79
2022/04/02 05:47:00;;;;;;;8.15;7.32;;;3.50;86.70;;;;;;7415071;19;20152;-76
2022/04/02 05:49:29;;;;;;;8.43;7.53;;;3.50;85.90;;;;;;7406848;19;20128;-76
2022/04/02 05:51:59;;;;;;;10.00;7.55;;;3.50;87.40;;;;;;7386215;19;20139;-75
2022/04/02 05:54:28;;;;;;;9.25;7.65;;;3.40;86.10;;;;;;7402873;19;20132;-76
2022/04/02 05:57:02;;;;;;;8.30;7.20;;;3.30;86.60;;;;;;7408979;19;20155;-78
2022/04/02 06:00:01;;;;;;;8.85;6.43;;;3.40;87.30;;;;;;7396287;19;20176;-81
2022/04/02 06:02:30;;;;;;;7.57;6.88;;;3.40;87.00;;;;;;7397641;19;20158;-78
2022/04/02 06:05:03;;;;;;;8.15;6.93;;;3.10;85.30;;;;;;7385106;19;20124;-72
2022/04/02 06:07:38;;;;;;;10.07;7.05;;;3.10;88.40;;;;;;7378602;19;20235;-72
2022/04/02 06:10:09;;;;;;;8.35;7.18;;;3.20;89.40;;;;;;7386695;19;20139;-77
2022/04/02 06:12:41;;;;;;;8.77;7.47;;;3.30;90.00;;;;;;7379367;19;20143;-74
2022/04/02 06:15:13;;;;;;;8.85;7.55;;;3.30;89.80;;;;;;7388903;19;20139;-86
2022/04/02 06:17:45;;;;;;;7.63;6.53;;;3.20;88.40;;;;;;7388279;19;20139;-77
2022/04/02 06:20:27;;;;;;;7.15;6.45;;;3.10;89.80;;;;;;7378640;19;20127;-78
2022/04/02 06:22:56;;;;;;;8.73;7.20;;;3.00;87.50;;;;;;7379592;19;20154;-78
2022/04/02 06:25:26;;;;;;;8.48;7.63;;;2.80;87.60;;;;;;7382838;19;20170;-77
2022/04/02 06:27:55;;;;;;;7.10;6.40;;;2.80;88.80;;;;;;7381349;19;20460;-76
2022/04/02 06:30:27;;;;;;;8.73;6.70;;;3.00;90.70;;;;;;7387801;19;20127;-76
2022/04/02 06:32:57;;;;;;;7.70;7.00;;;3.10;90.70;;;;;;7399966;19;20147;-77
2022/04/02 06:35:30;;;;;;;7.35;6.32;;;3.10;88.00;;;;;;7419623;19;20144;-77
2022/04/02 06:38:02;;;;;;;8.38;6.70;;;2.90;87.20;;;;;;7410968;19;20123;-76
2022/04/02 06:40:33;;;;;;;7.78;6.97;;;3.00;90.00;;;;;;7403453;19;20139;-69
2022/04/02 06:43:03;;;;;;;7.15;6.45;;;3.00;88.30;;;;;;7389532;19;20566;-71
2022/04/02 06:45:53;;;;;;;9.95;6.90;;;3.00;88.60;;;;;;7387178;19;20142;-71
2022/04/02 06:48:25;;;;;;;8.15;6.88;;;3.10;88.30;;;;;;7386721;19;20138;-70
2022/04/02 06:50:54;;;;;;;8.25;6.38;;;3.30;89.20;;;;;;7385016;19;20152;-71
2022/04/02 06:53:33;;;;;;;8.93;6.28;;;3.30;89.10;;;;;;7378410;19;20131;-72
2022/04/02 06:56:02;;;;;;;9.05;6.75;;;3.20;88.80;;;;;;7383327;19;20156;-70
2022/04/02 06:58:36;;;;;;;8.90;6.70;;;3.20;88.20;;;;;;7384414;19;20134;-69
2022/04/02 07:01:08;;;;;;;6.85;6.15;;;3.20;87.70;;;;;;7387294;19;20153;-71
2022/04/02 07:03:48;;;;;;;7.07;6.30;;;3.20;87.20;;;;;;7383697;19;20150;-70
2022/04/02 07:06:17;;;;;;;7.55;5.85;;;3.20;88.60;;;;;;7382575;19;20161;-70
2022/04/02 07:08:47;;;;;;;8.60;6.60;;;3.20;87.30;;;;;;7381609;19;20150;-70
2022/04/02 07:11:16;;;;;;;8.57;6.03;;;3.20;87.60;;;;;;7381045;19;20159;-71
2022/04/02 07:13:50;;;;;;;6.90;6.20;;;3.30;88.70;;;;;;7392571;19;20145;-69
2022/04/02 07:16:22;;;;;;;6.43;5.82;;;3.30;86.60;;;;;;7417564;19;20139;-70
2022/04/02 07:18:55;;;;;;;11.07;6.00;;;3.20;87.50;;;;;;7399442;19;20143;-69
2022/04/02 07:21:29;;;;;;;6.20;5.60;;;3.20;88.00;;;;;;7394607;19;20607;-71
2022/04/02 07:23:59;;;;;;;7.35;6.22;;;3.30;88.00;;;;;;7392557;19;20135;-71
2022/04/02 07:26:47;;;;;;;8.65;6.47;;;3.20;86.30;;;;;;7387414;19;20143;-71
2022/04/02 07:29:18;;;;;;;6.93;6.07;;;3.10;86.10;;;;;;7385086;19;20205;-70
2022/04/02 07:31:50;;;;;;;6.40;5.47;;;3.10;87.90;;;;;;7383882;19;20140;-70
2022/04/02 07:34:22;;;;;;;7.40;6.60;;;3.10;87.40;;;;;;7407344;19;20130;-70
2022/04/02 07:37:06;;;;;;;6.25;5.65;;;3.20;88.90;;;;;;7410431;19;20128;-70
2022/04/02 07:39:46;;;;;;;7.55;5.88;;;3.20;88.90;;;;;;7390750;19;20135;-71
2022/04/02 07:42:23;;;;;;;7.32;6.35;;;3.10;86.80;;;;;;7384330;19;20242;-70
2022/04/02 07:45:05;;;;;;;7.35;5.40;;;3.00;87.90;;;;;;7382569;19;20143;-71
2022/04/02 07:47:41;;;;;;;6.85;5.93;;;3.10;87.50;;;;;;7385392;19;20142;-71
2022/04/02 07:50:15;;;;;;;7.35;6.30;;;3.10;87.90;;;;;;7383656;19;20787;-71
2022/04/02 07:52:52;;;;;;;7.18;6.10;;;3.00;86.80;;;;;;7382618;19;20616;-72
2022/04/02 07:55:26;;;;;;;7.75;5.95;;;2.90;87.90;;;;;;7384973;19;20646;-70
2022/04/02 07:58:04;;;;;;;6.75;5.90;;;2.90;87.60;;;;;;7381760;19;20170;-71
2022/04/02 08:00:37;;;;;;;7.50;6.70;;;2.90;88.10;;;;;;7382943;19;21100;-71
2022/04/02 08:03:11;;;;;;;6.55;5.82;;;3.00;89.50;;;;;;7382518;19;20969;-71
2022/04/02 08:05:44;;;;;;;7.25;6.32;;;3.00;88.80;;;;;;7380936;19;20134;-70
2022/04/02 08:08:13;;;;;;;8.73;5.07;;;3.10;90.10;;;;;;7380213;19;20135;-72
2022/04/02 08:10:48;;;;;;;8.57;7.00;;;3.20;89.60;;;;;;7380426;19;20167;-72
2022/04/02 08:13:18;;;;;;;7.82;5.97;;;3.10;86.50;;;;;;7380860;19;20560;-71
2022/04/02 08:15:49;;;;;;;8.93;5.70;;;3.00;88.30;;;;;;7384681;19;20173;-69
2022/04/02 08:18:26;;;;;;;8.13;6.00;;;3.10;89.20;;;;;;7390842;19;20150;-68
2022/04/02 08:20:58;;;;;;;6.68;5.97;;;3.10;89.50;;;;;;7390213;19;20149;-71
2022/04/02 08:23:34;;;;;;;8.00;6.78;;;3.10;87.20;;;;;;7379567;19;20214;-76
2022/04/02 08:26:21;;;;;;;6.93;5.55;;;3.00;88.30;;;;;;7381197;19;20808;-74
2022/04/02 08:29:31;;;;;;;11.10;5.93;;;3.10;89.70;;;;;;7379391;19;20131;-74
2022/04/02 08:32:15;;;;;;;5.57;5.07;;;3.10;89.70;;;;;;7378196;19;20700;-71
2022/04/02 08:35:04;;;;;;;8.60;6.45;;;3.10;89.20;;;;;;7372865;19;20135;-75
2022/04/02 08:37:58;;;;;;;7.28;6.30;;;3.20;90.20;;;;;;7380721;19;20158;-74
2022/04/02 08:40:46;;;;;;;9.32;6.75;;;3.20;89.90;;;;;;7376307;19;20203;-73
2022/04/02 08:43:51;;;;;;;7.05;6.30;;;3.30;88.70;;;;;;7372437;19;20147;-70
2022/04/02 08:46:36;;;;;;;7.47;6.80;;;3.40;88.40;;;;;;7374440;19;20143;-71
2022/04/02 08:49:24;;;;;;;8.18;6.15;;;3.40;86.90;;;;;;7374326;19;20171;-70
2022/04/02 08:52:24;;;;;;;8.38;6.93;;;3.50;87.90;;;;;;7379367;19;22592;-72
2022/04/02 08:55:14;;;;;;;8.45;6.53;;;3.40;87.00;;;;;;7374548;19;20150;-72
2022/04/02 08:58:10;;;;;;;8.73;6.45;;;3.30;88.80;;;;;;7386274;19;20123;-67
2022/04/02 09:00:45;;;;;;;8.13;6.80;;;3.50;90.50;;;;;;7387150;19;20502;-69
2022/04/02 09:03:49;;;;;;;7.15;6.35;;;3.60;89.40;;;;;;7379303;19;20131;-69
2022/04/02 09:06:53;;;;;;;7.00;6.30;;;3.70;87.50;;;;;;7381391;19;20179;-70
2022/04/02 09:09:45;;;;;;;8.52;6.88;;;3.80;86.80;;;;;;7374311;19;20169;-69
2022/04/02 09:12:37;;;;;;;9.10;7.10;;;3.80;88.50;;;;;;7377238;19;20504;-70
2022/04/02 09:15:15;;;;;;;10.02;7.85;;;3.80;88.40;;;;;;7385013;19;20164;-68
2022/04/02 09:17:59;;;;;;;9.05;7.22;;;3.50;85.60;;;;;;7387032;19;20157;-71
2022/04/02 09:20:55;;;;;;;9.45;6.72;;;3.50;87.60;;;;;;7380775;19;20135;-76
2022/04/02 09:23:44;;;;;;;8.75;7.75;;;3.50;86.90;;;;;;7386909;19;20186;-74
2022/04/02 09:26:54;;;;;;;8.75;7.63;;;3.50;88.50;;;;;;7386897;19;20143;-74
2022/04/02 09:29:30;;;;;;;15.50;8.05;;;3.40;86.10;;;;;;7378030;19;20606;-73
2022/04/02 09:32:32;;;;;;;9.63;8.30;;;3.30;84.50;;;;;;7387002;19;20139;-71
2022/04/02 09:35:34;;;;;;;8.63;7.57;;;3.20;87.20;;;;;;7382717;19;20574;-74
2022/04/02 09:38:29;;;;;;;12.70;8.48;;;3.40;90.10;;;;;;7382826;19;20146;-73
2022/04/02 09:41:11;;;;;;;11.20;7.97;;;3.50;85.50;;;;;;7383863;19;20127;-73
2022/04/02 09:43:51;;;;;;;9.02;7.30;;;3.40;87.50;;;;;;7380391;19;20144;-72
2022/04/02 09:46:54;;;;;;;10.07;7.68;;;3.50;90.00;;;;;;7378276;19;20153;-74
2022/04/02 09:49:35;;;;;;;9.82;8.50;;;3.50;89.40;;;;;;7377713;19;20141;-69
2022/04/02 09:52:07;;;;;;;10.50;9.00;;;3.50;89.10;;;;;;7359609;19;20135;-72
2022/04/02 09:54:41;;;;;;;11.80;8.18;;;3.50;89.60;;;;;;7370525;19;20135;-72
2022/04/02 09:57:17;;;;;;;10.77;8.43;;;3.50;85.00;;;;;;7370127;19;20178;-72
2022/04/02 10:00:06;;;;;;;12.30;8.43;;;3.60;89.70;;;;;;7372593;19;20135;-71
2022/04/02 10:03:01;;;;;;;9.15;8.02;;;3.60;85.70;;;;;;7370159;19;20132;-71
2022/04/02 10:05:43;;;;;;;8.43;7.57;;;3.40;83.40;;;;;;7371287;19;20139;-71
2022/04/02 10:08:21;;;;;;;10.55;8.50;;;3.60;88.70;;;;;;7372197;19;20498;-71
2022/04/02 10:10:58;;;;;;;12.52;8.60;;;3.70;86.30;;;;;;7372171;19;20171;-69
2022/04/02 10:13:33;;;;;;;10.77;8.98;;;3.80;83.80;;;;;;7383675;19;20131;-69
2022/04/02 10:16:07;;;;;;;9.93;8.27;;;3.70;83.00;;;;;;7380951;19;20157;-67
2022/04/02 10:18:39;;;;;;;9.93;8.10;;;3.70;84.30;;;;;;7385495;19;20140;-69
2022/04/02 10:21:08;;;;;;;12.32;9.00;;;3.70;85.40;;;;;;7378701;19;20143;-69
2022/04/02 10:23:39;;;;;;;10.05;8.00;;;3.80;87.00;;;;;;7369064;19;20151;-69
2022/04/02 10:26:18;;;;;;;11.82;8.40;;;3.80;85.60;;;;;;7372753;19;20764;-70
2022/04/02 10:28:54;;;;;;;9.35;8.35;;;3.90;85.10;;;;;;7376331;19;20128;-69
2022/04/02 10:31:39;;;;;;;9.90;7.97;;;3.90;84.90;;;;;;7361017;19;20177;-70
2022/04/02 10:34:14;;;;;;;9.23;8.30;;;3.90;84.90;;;;;;7372363;19;20775;-71
2022/04/02 10:36:51;;;;;;;9.13;7.32;;;3.80;82.70;;;;;;7380940;19;20202;-69
2022/04/02 10:39:26;;;;;;;8.32;7.20;;;3.90;86.20;;;;;;7380204;19;20127;-71
2022/04/02 10:41:59;;;;;;;10.23;8.27;;;3.90;85.60;;;;;;7372170;19;20133;-71
2022/04/02 10:44:33;;;;;;;9.95;8.50;;;3.60;80.80;;;;;;7375417;19;20139;-70
2022/04/02 10:47:12;;;;;;;12.80;8.40;;;3.70;83.80;;;;;;7365221;19;20548;-70
2022/04/02 10:49:49;;;;;;;10.13;8.40;;;3.60;82.20;;;;;;7375401;19;20150;-72
2022/04/02 10:52:18;;;;;;;11.02;9.02;;;3.70;87.20;;;;;;7376318;19;20132;-74
2022/04/02 10:54:51;;;;;;;9.32;8.15;;;3.80;85.20;;;;;;7383187;19;20144;-74
2022/04/02 10:57:24;;;;;;;11.20;8.50;;;3.70;82.50;;;;;;7372739;19;20178;-72
2022/04/02 11:00:01;;;;;;;12.55;7.93;;;3.80;85.20;;;;;;7363888;19;20135;-73
2022/04/02 11:02:42;;;;;;;9.05;7.30;;;3.80;82.10;;;;;;7360944;19;20164;-72
2022/04/02 11:05:14;;;;;;;9.02;7.80;;;3.80;82.40;;;;;;7364544;19;20690;-74
2022/04/02 11:07:49;;;;;;;10.25;8.63;;;3.80;82.40;;;;;;7378646;19;20139;-74
2022/04/02 11:10:23;;;;;;;10.77;8.20;;;3.80;81.40;;;;;;7378994;19;20221;-74
2022/04/02 11:13:01;;;;;;;12.98;9.38;;;3.80;82.70;;;;;;7381453;19;20132;-74
2022/04/02 11:15:42;;;;;;;11.55;9.90;;;3.80;81.60;;;;;;7383296;19;20144;-74
2022/04/02 11:18:21;;;;;;;8.90;7.70;;;3.90;85.30;;;;;;7384276;19;20143;-74
2022/04/02 11:20:52;;;;;;;10.25;8.20;;;3.90;79.40;;;;;;7385967;19;20453;-74
2022/04/02 11:23:36;;;;;;;8.55;7.65;;;3.90;84.60;;;;;;7400947;19;20136;-73
2022/04/02 11:26:06;;;;;;;10.02;8.65;;;4.00;82.90;;;;;;7416361;19;20124;-73
2022/04/02 11:29:05;;;;;;;12.00;8.90;;;4.00;83.30;;;;;;7410943;19;20430;-74
2022/04/02 11:31:36;;;;;;;10.65;8.85;;;4.00;83.20;;;;;;7388778;19;20139;-74
2022/04/02 11:34:17;;;;;;;14.82;9.15;;;4.10;84.70;;;;;;7386431;19;20139;-74
2022/04/02 11:36:52;;;;;;;13.50;8.95;;;3.90;80.20;;;;;;7386476;19;20143;-74
2022/04/02 11:39:27;;;;;;;10.40;8.73;;;4.30;84.20;;;;;;7384439;19;20140;-72
2022/04/02 11:41:59;;;;;;;11.00;8.73;;;4.60;85.70;;;;;;7386074;19;20131;-74
2022/04/02 11:44:39;;;;;;;12.02;9.32;;;4.90;83.00;;;;;;7361366;19;20159;-77
2022/04/02 11:47:13;;;;;;;11.15;7.90;;;4.90;77.20;;;;;;7366196;19;20143;-73
2022/04/02 11:49:46;;;;;;;13.05;8.00;;;4.70;77.80;;;;;;7367986;19;20236;-71
2022/04/02 11:52:17;;;;;;;9.00;8.10;;;4.00;80.00;;;;;;7368853;19;20764;-71
2022/04/02 11:55:01;;;;;;;9.82;8.65;;;3.70;83.80;;;;;;7365342;19;20151;-71
2022/04/02 11:57:31;;;;;;;8.65;7.75;;;3.60;84.90;;;;;;7383857;19;20155;-70
2022/04/02 12:00:05;;;;;;;13.07;9.25;;;3.60;90.20;;;;;;7395125;19;20146;-68
2022/04/02 12:03:05;;;;;;;9.57;8.57;;;3.60;87.30;;;;;;7394810;19;20151;-70
2022/04/02 12:05:45;;;;;;;10.90;9.10;;;3.60;86.90;;;;;;7372222;19;20135;-71
2022/04/02 12:08:30;;;;;;;14.63;9.50;;;3.50;89.30;;;;;;7373803;19;20242;-70
2022/04/02 12:11:02;;;;;;;11.82;8.93;;;3.70;89.00;;;;;;7365143;19;20151;-71
2022/04/02 12:14:02;;;;;;;13.00;10.45;;;3.80;87.00;;;;;;7375209;19;20156;-71
2022/04/02 12:16:38;;;;;;;11.55;10.35;;;3.80;86.50;;;;;;7368917;19;20143;-70
2022/04/02 12:19:11;;;;;;;13.65;10.52;;;3.90;87.70;;;;;;7372044;19;20139;-71
2022/04/02 12:21:45;;;;;;;14.13;10.90;;;4.00;89.50;;;;;;7372506;19;20143;-72
2022/04/02 12:24:17;;;;;;;13.85;10.60;;;3.90;86.60;;;;;;7371613;19;20166;-71
2022/04/02 12:26:49;;;;;;;13.00;10.30;;;3.90;86.00;;;;;;7378253;19;20145;-69
2022/04/02 12:29:21;;;;;;;13.93;10.05;;;3.90;86.60;;;;;;7367851;19;20515;-70
2022/04/02 12:31:52;;;;;;;14.50;10.40;;;3.90;86.50;;;;;;7370353;19;20139;-72
2022/04/02 12:34:28;;;;;;;15.45;11.13;;;4.00;83.30;;;;;;7376373;19;20142;-71
2022/04/02 12:37:05;;;;;;;17.27;12.23;;;4.10;84.10;;;;;;7375947;19;20136;-69
2022/04/02 12:39:39;;;;;;;14.25;11.93;;;4.10;84.30;;;;;;7369554;19;20816;-70
2022/04/02 12:42:11;;;;;;;12.55;11.18;;;4.20;85.80;;;;;;7364299;19;21143;-71
2022/04/02 12:44:42;;;;;;;18.70;13.13;;;4.00;82.20;;;;;;7371076;19;20218;-71
2022/04/02 12:47:17;;;;;;;12.10;10.77;;;4.00;84.00;;;;;;7367161;19;20773;-72
2022/04/02 12:49:48;;;;;;;10.75;9.63;;;4.10;88.30;;;;;;7374266;19;21409;-72
2022/04/02 12:52:24;;;;;;;13.77;10.85;;;4.10;85.00;;;;;;7365506;19;20191;-71
2022/04/02 12:54:55;;;;;;;13.05;11.20;;;4.10;83.60;;;;;;7367444;19;20143;-70
2022/04/02 12:57:31;;;;;;;13.10;10.60;;;3.90;82.20;;;;;;7353864;19;20175;-69
2022/04/02 13:00:00;;;;;;;14.50;11.23;;;4.00;87.00;;;;;;7368579;19;20136;-71
2022/04/02 13:02:36;;;;;;;12.30;10.93;;;4.10;87.50;;;;;;7373936;19;20134;-71
2022/04/02 13:05:14;;;;;;;13.73;10.60;;;4.10;84.10;;;;;;7374684;19;20505;-70
2022/04/02 13:08:01;;;;;;;15.55;11.77;;;4.20;85.10;;;;;;7369484;19;20763;-69
2022/04/02 13:10:31;;;;;;;15.50;11.73;;;4.40;85.70;;;;;;7377116;19;20164;-67
2022/04/02 13:13:07;;;;;;;13.05;11.57;;;4.50;86.40;;;;;;7367512;19;20139;-69
2022/04/02 13:15:52;;;;;;;14.80;13.02;;;4.50;84.20;;;;;;7369153;19;20140;-69
2022/04/02 13:21:10;;;;;;;11.65;10.45;;;4.50;80.10;;;;;;7381458;19;20598;-71
2022/04/02 13:24:09;;;;;;;16.25;12.27;;;4.40;83.40;;;;;;7380394;19;20579;-72
2022/04/02 13:26:48;;;;;;;12.52;9.88;;;4.40;81.50;;;;;;7375832;19;20135;-71
2022/04/02 13:29:33;;;;;;;11.02;9.90;;;4.30;80.80;;;;;;7364560;19;21008;-72
2022/04/02 13:32:17;;;;;;;10.57;9.05;;;4.30;83.00;;;;;;7363433;19;20139;-71
2022/04/02 13:35:01;;;;;;;14.65;9.65;;;4.10;83.40;;;;;;7365492;19;20148;-72
2022/04/02 13:37:49;;;;;;;11.93;10.07;;;4.20;85.00;;;;;;7378790;19;20139;-73
2022/04/02 13:40:22;;;;;;;11.45;9.45;;;3.90;84.10;;;;;;7372414;19;20677;-72